sensor_id;sensor_type;location;lat;lon;timestamp;pressure;altitude;pressure_sealevel;temperature;humidity
73429;BME280;61643;49.564;17.412;2023-08-08T00:01:32;98060.84;;;12.54;100.00
73429;BME280;61643;49.564;17.412;2023-08-08T00:03:59;98060.28;;;12.52;100.00
73429;BME280;61643;49.564;17.412;2023-08-08T00:06:25;98062.19;;;12.56;100.00
73429;BME280;61643;49.564;17.412;2023-08-08T00:08:50;98067.88;;;12.55;100.00
73429;BME280;61643;49.564;17.412;2023-08-08T00:11:16;98062.47;;;12.55;100.00
73429;BME280;61643;49.564;17.412;2023-08-08T00:13:42;98061.63;;;12.59;100.00
73429;BME280;61643;49.564;17.412;2023-08-08T00:16:08;98058.94;;;12.59;100.00
73429;BME280;61643;49.564;17.412;2023-08-08T00:18:34;98054.09;;;12.51;100.00
73429;BME280;61643;49.564;17.412;2023-08-08T00:21:00;98062.19;;;12.51;100.00
73429;BME280;61643;49.564;17.412;2023-08-08T00:23:26;98065.44;;;12.58;100.00
73429;BME280;61643;49.564;17.412;2023-08-08T00:25:52;98055.69;;;12.57;100.00
73429;BME280;61643;49.564;17.412;2023-08-08T00:28:18;98057.31;;;12.53;100.00
73429;BME280;61643;49.564;17.412;2023-08-08T00:30:44;98057.88;;;12.50;100.00
73429;BME280;61643;49.564;17.412;2023-08-08T00:33:10;98061.38;;;12.51;100.00
73429;BME280;61643;49.564;17.412;2023-08-08T00:35:36;98059.25;;;12.48;100.00
73429;BME280;61643;49.564;17.412;2023-08-08T00:38:02;98066.25;;;12.44;100.00
73429;BME280;61643;49.564;17.412;2023-08-08T00:40:28;98065.97;;;12.45;100.00
73429;BME280;61643;49.564;17.412;2023-08-08T00:42:54;98067.88;;;12.50;100.00
73429;BME280;61643;49.564;17.412;2023-08-08T00:45:20;98066.50;;;12.52;100.00
73429;BME280;61643;49.564;17.412;2023-08-08T00:47:46;98065.16;;;12.50;100.00
73429;BME280;61643;49.564;17.412;2023-08-08T00:50:13;98073.25;;;12.50;100.00
73429;BME280;61643;49.564;17.412;2023-08-08T00:52:40;98081.06;;;12.56;100.00
73429;BME280;61643;49.564;17.412;2023-08-08T00:55:07;98076.22;;;12.53;100.00
73429;BME280;61643;49.564;17.412;2023-08-08T00:57:34;98064.91;;;12.51;100.00
73429;BME280;61643;49.564;17.412;2023-08-08T01:00:07;98078.66;;;12.50;100.00
73429;BME280;61643;49.564;17.412;2023-08-08T01:02:35;98078.66;;;12.45;100.00
73429;BME280;61643;49.564;17.412;2023-08-08T01:05:02;98080.84;;;12.48;100.00
73429;BME280;61643;49.564;17.412;2023-08-08T01:07:52;98069.50;;;12.36;100.00
73429;BME280;61643;49.564;17.412;2023-08-08T01:10:33;98077.59;;;12.41;100.00
73429;BME280;61643;49.564;17.412;2023-08-08T01:13:03;98065.72;;;12.31;100.00
73429;BME280;61643;49.564;17.412;2023-08-08T01:15:32;98073.28;;;12.34;100.00
73429;BME280;61643;49.564;17.412;2023-08-08T01:18:10;98083.53;;;12.32;100.00
73429;BME280;61643;49.564;17.412;2023-08-08T01:20:37;98071.66;;;12.23;100.00
73429;BME280;61643;49.564;17.412;2023-08-08T01:23:23;98083.81;;;12.31;100.00
73429;BME280;61643;49.564;17.412;2023-08-08T01:25:52;98086.78;;;12.24;100.00
73429;BME280;61643;49.564;17.412;2023-08-08T01:28:22;98086.78;;;12.14;100.00
73429;BME280;61643;49.564;17.412;2023-08-08T01:30:48;98088.94;;;12.27;100.00
73429;BME280;61643;49.564;17.412;2023-08-08T01:33:14;98084.34;;;12.33;100.00
73429;BME280;61643;49.564;17.412;2023-08-08T01:35:44;98086.22;;;12.27;100.00
73429;BME280;61643;49.564;17.412;2023-08-08T01:40:52;98082.19;;;12.30;100.00
73429;BME280;61643;49.564;17.412;2023-08-08T01:43:18;98091.09;;;12.30;100.00
73429;BME280;61643;49.564;17.412;2023-08-08T01:45:46;98082.19;;;12.35;100.00
73429;BME280;61643;49.564;17.412;2023-08-08T01:48:13;98087.31;;;12.42;100.00
73429;BME280;61643;49.564;17.412;2023-08-08T01:50:38;98081.34;;;12.45;100.00
73429;BME280;61643;49.564;17.412;2023-08-08T01:53:05;98088.66;;;12.49;100.00
73429;BME280;61643;49.564;17.412;2023-08-08T01:55:31;98088.13;;;12.47;100.00
73429;BME280;61643;49.564;17.412;2023-08-08T01:57:57;98072.44;;;12.49;100.00
73429;BME280;61643;49.564;17.412;2023-08-08T02:00:23;98082.44;;;12.54;100.00
73429;BME280;61643;49.564;17.412;2023-08-08T02:02:49;98081.09;;;12.51;100.00
73429;BME280;61643;49.564;17.412;2023-08-08T02:05:15;98083.81;;;12.51;100.00
73429;BME280;61643;49.564;17.412;2023-08-08T02:07:41;98078.94;;;12.53;100.00
73429;BME280;61643;49.564;17.412;2023-08-08T02:10:07;98085.41;;;12.52;100.00
73429;BME280;61643;49.564;17.412;2023-08-08T02:12:33;98090.53;;;12.54;100.00
73429;BME280;61643;49.564;17.412;2023-08-08T02:14:59;98088.66;;;12.49;100.00
73429;BME280;61643;49.564;17.412;2023-08-08T02:17:25;98097.81;;;12.53;100.00
73429;BME280;61643;49.564;17.412;2023-08-08T02:19:52;98102.41;;;12.53;100.00
73429;BME280;61643;49.564;17.412;2023-08-08T02:22:18;98098.38;;;12.50;100.00
73429;BME280;61643;49.564;17.412;2023-08-08T02:24:44;98101.31;;;12.49;100.00
73429;BME280;61643;49.564;17.412;2023-08-08T02:27:11;98108.34;;;12.45;100.00
73429;BME280;61643;49.564;17.412;2023-08-08T02:29:37;98099.72;;;12.38;100.00
73429;BME280;61643;49.564;17.412;2023-08-08T02:32:04;98112.69;;;12.36;100.00
73429;BME280;61643;49.564;17.412;2023-08-08T02:34:30;98109.97;;;12.30;100.00
73429;BME280;61643;49.564;17.412;2023-08-08T02:36:56;98108.91;;;12.26;100.00
73429;BME280;61643;49.564;17.412;2023-08-08T02:39:22;98106.75;;;12.18;100.00
73429;BME280;61643;49.564;17.412;2023-08-08T02:41:47;98106.75;;;12.13;100.00
73429;BME280;61643;49.564;17.412;2023-08-08T02:44:13;98104.59;;;12.10;100.00
73429;BME280;61643;49.564;17.412;2023-08-08T02:46:39;98102.97;;;12.09;100.00
73429;BME280;61643;49.564;17.412;2023-08-08T02:49:05;98102.97;;;12.04;100.00
73429;BME280;61643;49.564;17.412;2023-08-08T02:51:32;98111.56;;;12.01;100.00
73429;BME280;61643;49.564;17.412;2023-08-08T02:53:57;98109.97;;;12.00;100.00
73429;BME280;61643;49.564;17.412;2023-08-08T02:56:23;98109.44;;;12.03;100.00
73429;BME280;61643;49.564;17.412;2023-08-08T02:58:49;98115.91;;;12.02;100.00
73429;BME280;61643;49.564;17.412;2023-08-08T03:01:15;98112.38;;;12.02;100.00
73429;BME280;61643;49.564;17.412;2023-08-08T03:03:42;98121.84;;;11.99;100.00
73429;BME280;61643;49.564;17.412;2023-08-08T03:06:08;98120.22;;;11.93;100.00
73429;BME280;61643;49.564;17.412;2023-08-08T03:08:34;98124.50;;;11.94;100.00
73429;BME280;61643;49.564;17.412;2023-08-08T03:11:00;98131.28;;;11.97;100.00
73429;BME280;61643;49.564;17.412;2023-08-08T03:13:26;98134.75;;;11.82;100.00
73429;BME280;61643;49.564;17.412;2023-08-08T03:15:52;98127.22;;;11.79;100.00
73429;BME280;61643;49.564;17.412;2023-08-08T03:18:18;98128.81;;;11.75;100.00
73429;BME280;61643;49.564;17.412;2023-08-08T03:20:44;98130.91;;;11.68;100.00
73429;BME280;61643;49.564;17.412;2023-08-08T03:23:10;98127.38;;;11.62;100.00
73429;BME280;61643;49.564;17.412;2023-08-08T03:25:36;98120.38;;;11.56;100.00
73429;BME280;61643;49.564;17.412;2023-08-08T03:28:02;98120.91;;;11.53;100.00
73429;BME280;61643;49.564;17.412;2023-08-08T03:30:29;98121.09;;;11.36;100.00
73429;BME280;61643;49.564;17.412;2023-08-08T03:32:55;98128.13;;;11.38;100.00
73429;BME280;61643;49.564;17.412;2023-08-08T03:35:21;98127.88;;;11.39;100.00
73429;BME280;61643;49.564;17.412;2023-08-08T03:37:47;98125.16;;;11.39;100.00
73429;BME280;61643;49.564;17.412;2023-08-08T03:40:13;98126.50;;;11.42;100.00
73429;BME280;61643;49.564;17.412;2023-08-08T03:42:41;98127.56;;;11.41;100.00
73429;BME280;61643;49.564;17.412;2023-08-08T03:45:08;98131.91;;;11.42;100.00
73429;BME280;61643;49.564;17.412;2023-08-08T03:47:34;98131.88;;;11.36;100.00
73429;BME280;61643;49.564;17.412;2023-08-08T03:50:00;98144.00;;;11.34;100.00
73429;BME280;61643;49.564;17.412;2023-08-08T03:52:26;98134.00;;;11.24;100.00
73429;BME280;61643;49.564;17.412;2023-08-08T03:54:52;98135.88;;;11.24;100.00
73429;BME280;61643;49.564;17.412;2023-08-08T03:57:18;98131.78;;;11.16;100.00
73429;BME280;61643;49.564;17.412;2023-08-08T03:59:44;98137.69;;;11.08;100.00
73429;BME280;61643;49.564;17.412;2023-08-08T04:02:10;98138.81;;;11.17;100.00
73429;BME280;61643;49.564;17.412;2023-08-08T04:04:36;98144.97;;;11.13;100.00
73429;BME280;61643;49.564;17.412;2023-08-08T04:07:02;98134.75;;;11.15;100.00
73429;BME280;61643;49.564;17.412;2023-08-08T04:09:28;98147.47;;;11.24;100.00
73429;BME280;61643;49.564;17.412;2023-08-08T04:11:54;98139.34;;;11.19;100.00
73429;BME280;61643;49.564;17.412;2023-08-08T04:14:20;98145.78;;;11.13;100.00
73429;BME280;61643;49.564;17.412;2023-08-08T04:16:46;98150.59;;;11.06;100.00
73429;BME280;61643;49.564;17.412;2023-08-08T04:19:12;98146.63;;;11.19;100.00
73429;BME280;61643;49.564;17.412;2023-08-08T04:21:37;98153.13;;;11.28;100.00
73429;BME280;61643;49.564;17.412;2023-08-08T04:24:04;98163.06;;;11.22;100.00
73429;BME280;61643;49.564;17.412;2023-08-08T04:26:30;98163.69;;;11.34;100.00
73429;BME280;61643;49.564;17.412;2023-08-08T04:28:55;98164.25;;;11.42;100.00
73429;BME280;61643;49.564;17.412;2023-08-08T04:31:21;98165.88;;;11.48;100.00
73429;BME280;61643;49.564;17.412;2023-08-08T04:33:50;98173.44;;;11.46;100.00
73429;BME280;61643;49.564;17.412;2023-08-08T04:36:16;98174.25;;;11.51;100.00
73429;BME280;61643;49.564;17.412;2023-08-08T04:38:42;98171.88;;;11.65;100.00
73429;BME280;61643;49.564;17.412;2023-08-08T04:41:08;98181.13;;;11.84;100.00
73429;BME280;61643;49.564;17.412;2023-08-08T04:43:34;98185.97;;;11.77;100.00
73429;BME280;61643;49.564;17.412;2023-08-08T04:46:00;98182.31;;;12.18;100.00
73429;BME280;61643;49.564;17.412;2023-08-08T04:48:26;98178.78;;;12.28;100.00
73429;BME280;61643;49.564;17.412;2023-08-08T04:50:52;98178.28;;;12.36;100.00
73429;BME280;61643;49.564;17.412;2023-08-08T04:53:18;98184.22;;;12.68;100.00
73429;BME280;61643;49.564;17.412;2023-08-08T04:55:44;98185.00;;;12.74;100.00
73429;BME280;61643;49.564;17.412;2023-08-08T04:58:10;98188.75;;;13.13;100.00
73429;BME280;61643;49.564;17.412;2023-08-08T05:00:36;98189.50;;;13.44;100.00
73429;BME280;61643;49.564;17.412;2023-08-08T05:03:02;98190.47;;;13.73;100.00
73429;BME280;61643;49.564;17.412;2023-08-08T05:05:28;98194.28;;;14.21;100.00
73429;BME280;61643;49.564;17.412;2023-08-08T05:07:54;98188.50;;;14.43;100.00
73429;BME280;61643;49.564;17.412;2023-08-08T05:10:20;98185.69;;;14.53;100.00
73429;BME280;61643;49.564;17.412;2023-08-08T05:12:46;98199.06;;;14.40;100.00
73429;BME280;61643;49.564;17.412;2023-08-08T05:15:12;98198.94;;;14.55;100.00
73429;BME280;61643;49.564;17.412;2023-08-08T05:17:38;98203.31;;;14.85;100.00
73429;BME280;61643;49.564;17.412;2023-08-08T05:20:04;98194.22;;;14.70;100.00
73429;BME280;61643;49.564;17.412;2023-08-08T05:22:30;98202.13;;;14.62;100.00
73429;BME280;61643;49.564;17.412;2023-08-08T05:24:56;98206.06;;;14.46;100.00
73429;BME280;61643;49.564;17.412;2023-08-08T05:27:22;98209.13;;;14.34;100.00
73429;BME280;61643;49.564;17.412;2023-08-08T05:29:48;98213.19;;;14.26;100.00
73429;BME280;61643;49.564;17.412;2023-08-08T05:32:14;98202.94;;;14.18;100.00
73429;BME280;61643;49.564;17.412;2023-08-08T05:34:40;98199.53;;;14.03;100.00
73429;BME280;61643;49.564;17.412;2023-08-08T05:37:06;98206.91;;;13.87;100.00
73429;BME280;61643;49.564;17.412;2023-08-08T05:39:33;98212.22;;;14.07;100.00
73429;BME280;61643;49.564;17.412;2023-08-08T05:41:59;98219.78;;;14.10;100.00
73429;BME280;61643;49.564;17.412;2023-08-08T05:44:25;98220.00;;;14.19;100.00
73429;BME280;61643;49.564;17.412;2023-08-08T05:46:51;98198.06;;;14.20;100.00
73429;BME280;61643;49.564;17.412;2023-08-08T05:49:17;98216.66;;;14.37;100.00
73429;BME280;61643;49.564;17.412;2023-08-08T05:51:43;98216.91;;;14.46;100.00
73429;BME280;61643;49.564;17.412;2023-08-08T05:54:09;98214.44;;;14.44;100.00
73429;BME280;61643;49.564;17.412;2023-08-08T05:56:37;98217.06;;;14.59;100.00
73429;BME280;61643;49.564;17.412;2023-08-08T05:59:04;98214.84;;;14.66;100.00
73429;BME280;61643;49.564;17.412;2023-08-08T06:01:30;98214.19;;;14.79;100.00
73429;BME280;61643;49.564;17.412;2023-08-08T06:03:57;98215.47;;;14.87;100.00
73429;BME280;61643;49.564;17.412;2023-08-08T06:06:25;98213.56;;;14.88;100.00
73429;BME280;61643;49.564;17.412;2023-08-08T06:08:52;98212.69;;;14.97;100.00
73429;BME280;61643;49.564;17.412;2023-08-08T06:11:18;98204.03;;;14.95;100.00
73429;BME280;61643;49.564;17.412;2023-08-08T06:13:44;98203.63;;;15.12;100.00
73429;BME280;61643;49.564;17.412;2023-08-08T06:16:10;98208.84;;;15.27;98.92
73429;BME280;61643;49.564;17.412;2023-08-08T06:18:37;98212.84;;;15.11;100.00
73429;BME280;61643;49.564;17.412;2023-08-08T06:21:03;98205.56;;;15.06;100.00
73429;BME280;61643;49.564;17.412;2023-08-08T06:23:29;98218.72;;;15.18;100.00
73429;BME280;61643;49.564;17.412;2023-08-08T06:25:55;98223.47;;;15.02;100.00
73429;BME280;61643;49.564;17.412;2023-08-08T06:28:21;98217.47;;;15.05;100.00
73429;BME280;61643;49.564;17.412;2023-08-08T06:30:47;98218.59;;;15.04;100.00
73429;BME280;61643;49.564;17.412;2023-08-08T06:33:13;98221.59;;;14.98;100.00
73429;BME280;61643;49.564;17.412;2023-08-08T06:35:39;98213.19;;;14.70;100.00
73429;BME280;61643;49.564;17.412;2023-08-08T06:38:05;98214.00;;;14.71;100.00
73429;BME280;61643;49.564;17.412;2023-08-08T06:40:31;98220.81;;;14.63;100.00
73429;BME280;61643;49.564;17.412;2023-08-08T06:42:57;98215.44;;;14.58;100.00
73429;BME280;61643;49.564;17.412;2023-08-08T06:45:23;98214.63;;;14.58;100.00
73429;BME280;61643;49.564;17.412;2023-08-08T06:47:50;98233.56;;;14.58;100.00
73429;BME280;61643;49.564;17.412;2023-08-08T06:50:15;98224.69;;;14.52;100.00
73429;BME280;61643;49.564;17.412;2023-08-08T06:52:42;98223.44;;;14.29;100.00
73429;BME280;61643;49.564;17.412;2023-08-08T06:55:08;98222.38;;;14.25;100.00
73429;BME280;61643;49.564;17.412;2023-08-08T06:57:35;98220.22;;;14.27;100.00
73429;BME280;61643;49.564;17.412;2023-08-08T07:00:02;98214.06;;;14.17;100.00
73429;BME280;61643;49.564;17.412;2023-08-08T07:02:30;98200.81;;;14.15;100.00
73429;BME280;61643;49.564;17.412;2023-08-08T07:04:56;98212.38;;;14.26;100.00
73429;BME280;61643;49.564;17.412;2023-08-08T07:07:22;98215.13;;;14.21;100.00
73429;BME280;61643;49.564;17.412;2023-08-08T07:09:48;98215.94;;;14.21;100.00
73429;BME280;61643;49.564;17.412;2023-08-08T07:12:14;98214.38;;;14.10;100.00
73429;BME280;61643;49.564;17.412;2023-08-08T07:14:40;98217.78;;;14.31;100.00
73429;BME280;61643;49.564;17.412;2023-08-08T07:17:06;98221.56;;;14.30;100.00
73429;BME280;61643;49.564;17.412;2023-08-08T07:19:32;98214.69;;;14.48;100.00
73429;BME280;61643;49.564;17.412;2023-08-08T07:21:58;98223.28;;;14.60;100.00
73429;BME280;61643;49.564;17.412;2023-08-08T07:24:24;98211.13;;;14.57;100.00
73429;BME280;61643;49.564;17.412;2023-08-08T07:26:55;98209.56;;;14.80;100.00
73429;BME280;61643;49.564;17.412;2023-08-08T07:29:21;98205.19;;;14.84;100.00
73429;BME280;61643;49.564;17.412;2023-08-08T07:31:47;98204.03;;;14.95;100.00
73429;BME280;61643;49.564;17.412;2023-08-08T07:34:13;98174.78;;;14.92;100.00
73429;BME280;61643;49.564;17.412;2023-08-08T07:36:39;98204.41;;;15.12;100.00
73429;BME280;61643;49.564;17.412;2023-08-08T07:39:05;98202.00;;;15.11;100.00
73429;BME280;61643;49.564;17.412;2023-08-08T07:41:31;98197.66;;;15.10;100.00
73429;BME280;61643;49.564;17.412;2023-08-08T07:43:57;98202.22;;;15.14;100.00
73429;BME280;61643;49.564;17.412;2023-08-08T07:46:23;98199.13;;;15.26;100.00
73429;BME280;61643;49.564;17.412;2023-08-08T07:48:49;98200.53;;;15.47;99.29
73429;BME280;61643;49.564;17.412;2023-08-08T07:51:15;98203.16;;;15.57;97.62
73429;BME280;61643;49.564;17.412;2023-08-08T07:53:41;98203.88;;;15.63;95.06
73429;BME280;61643;49.564;17.412;2023-08-08T07:56:07;98201.41;;;15.66;93.86
73429;BME280;61643;49.564;17.412;2023-08-08T07:58:33;98202.63;;;15.79;94.04
73429;BME280;61643;49.564;17.412;2023-08-08T08:00:59;98192.47;;;15.85;94.24
73429;BME280;61643;49.564;17.412;2023-08-08T08:03:28;98189.53;;;15.81;92.79
73429;BME280;61643;49.564;17.412;2023-08-08T08:05:54;98194.47;;;15.79;92.00
73429;BME280;61643;49.564;17.412;2023-08-08T08:08:20;98193.88;;;15.82;95.03
73429;BME280;61643;49.564;17.412;2023-08-08T08:10:47;98190.75;;;15.94;93.73
73429;BME280;61643;49.564;17.412;2023-08-08T08:13:14;98181.75;;;15.98;94.27
73429;BME280;61643;49.564;17.412;2023-08-08T08:15:40;98191.47;;;15.99;91.40
73429;BME280;61643;49.564;17.412;2023-08-08T08:18:06;98192.00;;;16.01;91.63
73429;BME280;61643;49.564;17.412;2023-08-08T08:20:32;98185.78;;;16.01;92.18
73429;BME280;61643;49.564;17.412;2023-08-08T08:22:58;98193.41;;;16.17;90.39
73429;BME280;61643;49.564;17.412;2023-08-08T08:25:24;98192.53;;;16.41;89.90
73429;BME280;61643;49.564;17.412;2023-08-08T08:27:50;98191.88;;;16.49;88.86
73429;BME280;61643;49.564;17.412;2023-08-08T08:30:16;98192.03;;;16.57;88.91
73429;BME280;61643;49.564;17.412;2023-08-08T08:32:42;98202.06;;;16.57;90.61
73429;BME280;61643;49.564;17.412;2023-08-08T08:35:08;98205.06;;;16.55;90.15
73429;BME280;61643;49.564;17.412;2023-08-08T08:37:34;98197.91;;;16.46;91.92
73429;BME280;61643;49.564;17.412;2023-08-08T08:40:00;98199.81;;;16.45;93.83
73429;BME280;61643;49.564;17.412;2023-08-08T08:42:27;98196.72;;;16.52;93.13
73429;BME280;61643;49.564;17.412;2023-08-08T08:44:58;98187.25;;;16.49;89.48
73429;BME280;61643;49.564;17.412;2023-08-08T08:47:25;98194.06;;;16.47;90.63
73429;BME280;61643;49.564;17.412;2023-08-08T08:49:54;98195.41;;;16.49;90.69
73429;BME280;61643;49.564;17.412;2023-08-08T08:52:21;98188.84;;;16.50;93.70
73429;BME280;61643;49.564;17.412;2023-08-08T08:54:49;98197.16;;;16.59;91.12
73429;BME280;61643;49.564;17.412;2023-08-08T08:57:15;98194.34;;;16.64;92.13
73429;BME280;61643;49.564;17.412;2023-08-08T08:59:42;98191.50;;;16.74;95.40
73429;BME280;61643;49.564;17.412;2023-08-08T09:02:08;98192.13;;;16.85;90.71
73429;BME280;61643;49.564;17.412;2023-08-08T09:04:36;98190.94;;;16.91;91.60
73429;BME280;61643;49.564;17.412;2023-08-08T09:07:03;98193.66;;;16.91;91.62
73429;BME280;61643;49.564;17.412;2023-08-08T09:09:32;98194.97;;;16.93;91.94
73429;BME280;61643;49.564;17.412;2023-08-08T09:11:58;98195.06;;;16.88;88.72
73429;BME280;61643;49.564;17.412;2023-08-08T09:14:25;98192.72;;;16.82;85.94
73429;BME280;61643;49.564;17.412;2023-08-08T09:16:53;98194.31;;;16.83;80.67
73429;BME280;61643;49.564;17.412;2023-08-08T09:19:20;98188.38;;;16.81;80.99
73429;BME280;61643;49.564;17.412;2023-08-08T09:21:46;98197.97;;;16.78;82.20
73429;BME280;61643;49.564;17.412;2023-08-08T09:24:13;98196.41;;;16.72;81.92
73429;BME280;61643;49.564;17.412;2023-08-08T09:26:42;98207.81;;;16.74;85.85
73429;BME280;61643;49.564;17.412;2023-08-08T09:29:10;98204.69;;;16.81;84.89
73429;BME280;61643;49.564;17.412;2023-08-08T09:31:37;98201.59;;;16.87;85.82
73429;BME280;61643;49.564;17.412;2023-08-08T09:34:03;98197.09;;;16.96;85.58
73429;BME280;61643;49.564;17.412;2023-08-08T09:36:30;98190.97;;;17.04;85.04
73429;BME280;61643;49.564;17.412;2023-08-08T09:38:56;98186.66;;;17.17;85.94
73429;BME280;61643;49.564;17.412;2023-08-08T09:41:23;98189.25;;;17.08;81.81
73429;BME280;61643;49.564;17.412;2023-08-08T09:43:51;98179.94;;;17.28;83.59
73429;BME280;61643;49.564;17.412;2023-08-08T09:46:21;98180.44;;;17.44;80.69
73429;BME280;61643;49.564;17.412;2023-08-08T09:48:48;98193.06;;;17.53;81.25
73429;BME280;61643;49.564;17.412;2023-08-08T09:51:14;98181.44;;;17.48;78.13
73429;BME280;61643;49.564;17.412;2023-08-08T09:53:41;98185.19;;;17.52;79.42
73429;BME280;61643;49.564;17.412;2023-08-08T09:56:07;98180.34;;;17.49;75.07
73429;BME280;61643;49.564;17.412;2023-08-08T09:58:34;98187.50;;;17.31;76.72
73429;BME280;61643;49.564;17.412;2023-08-08T10:01:00;98186.53;;;17.08;77.34
73429;BME280;61643;49.564;17.412;2023-08-08T10:03:26;98185.38;;;17.14;78.19
73429;BME280;61643;49.564;17.412;2023-08-08T10:05:53;98184.75;;;17.17;79.35
73429;BME280;61643;49.564;17.412;2023-08-08T10:08:19;98179.22;;;17.22;80.76
73429;BME280;61643;49.564;17.412;2023-08-08T10:10:47;98172.25;;;17.30;79.88
73429;BME280;61643;49.564;17.412;2023-08-08T10:13:25;98166.94;;;17.39;78.31
73429;BME280;61643;49.564;17.412;2023-08-08T10:15:52;98165.25;;;17.56;80.83
73429;BME280;61643;49.564;17.412;2023-08-08T10:18:22;98169.28;;;17.86;80.28
73429;BME280;61643;49.564;17.412;2023-08-08T10:20:48;98169.63;;;18.07;78.09
73429;BME280;61643;49.564;17.412;2023-08-08T10:23:18;98164.53;;;18.28;76.47
73429;BME280;61643;49.564;17.412;2023-08-08T10:25:45;98162.69;;;18.37;78.85
73429;BME280;61643;49.564;17.412;2023-08-08T10:28:14;98160.13;;;18.18;71.43
73429;BME280;61643;49.564;17.412;2023-08-08T10:33:21;98160.03;;;18.09;76.70
73429;BME280;61643;49.564;17.412;2023-08-08T10:38:26;98143.91;;;17.99;77.81
73429;BME280;61643;49.564;17.412;2023-08-08T10:40:59;98146.06;;;17.89;76.59
73429;BME280;61643;49.564;17.412;2023-08-08T10:43:29;98145.25;;;17.88;77.27
73429;BME280;61643;49.564;17.412;2023-08-08T10:46:00;98142.25;;;17.90;77.42
73429;BME280;61643;49.564;17.412;2023-08-08T10:48:26;98134.88;;;17.90;82.84
73429;BME280;61643;49.564;17.412;2023-08-08T10:50:59;98141.72;;;17.88;80.92
73429;BME280;61643;49.564;17.412;2023-08-08T10:53:27;98145.38;;;17.83;78.57
73429;BME280;61643;49.564;17.412;2023-08-08T10:56:01;98141.25;;;17.72;76.16
73429;BME280;61643;49.564;17.412;2023-08-08T10:58:38;98142.25;;;17.90;77.49
73429;BME280;61643;49.564;17.412;2023-08-08T11:01:05;98139.09;;;17.96;75.26
73429;BME280;61643;49.564;17.412;2023-08-08T11:03:37;98138.19;;;18.01;77.43
73429;BME280;61643;49.564;17.412;2023-08-08T11:06:03;98135.50;;;18.09;76.03
73429;BME280;61643;49.564;17.412;2023-08-08T11:08:31;98131.69;;;18.10;76.59
73429;BME280;61643;49.564;17.412;2023-08-08T11:10:57;98129.50;;;17.99;75.95
73429;BME280;61643;49.564;17.412;2023-08-08T11:13:23;98134.50;;;17.83;76.27
73429;BME280;61643;49.564;17.412;2023-08-08T11:15:49;98130.47;;;17.67;77.13
73429;BME280;61643;49.564;17.412;2023-08-08T11:18:15;98119.25;;;17.55;78.00
73429;BME280;61643;49.564;17.412;2023-08-08T11:20:40;98130.56;;;17.48;76.73
73429;BME280;61643;49.564;17.412;2023-08-08T11:23:07;98122.19;;;17.45;77.23
73429;BME280;61643;49.564;17.412;2023-08-08T11:25:36;98126.22;;;17.47;79.00
73429;BME280;61643;49.564;17.412;2023-08-08T11:28:03;98137.28;;;17.51;79.13
73429;BME280;61643;49.564;17.412;2023-08-08T11:30:31;98131.44;;;17.44;81.11
73429;BME280;61643;49.564;17.412;2023-08-08T11:32:59;98131.84;;;17.37;83.02
73429;BME280;61643;49.564;17.412;2023-08-08T11:35:26;98135.50;;;17.33;81.82
73429;BME280;61643;49.564;17.412;2023-08-08T11:37:54;98137.41;;;17.32;79.35
73429;BME280;61643;49.564;17.412;2023-08-08T11:40:20;98137.41;;;17.32;78.44
73429;BME280;61643;49.564;17.412;2023-08-08T11:42:47;98137.31;;;17.37;80.39
73429;BME280;61643;49.564;17.412;2023-08-08T11:45:16;98133.47;;;17.38;80.97
73429;BME280;61643;49.564;17.412;2023-08-08T11:47:42;98139.94;;;17.42;79.19
73429;BME280;61643;49.564;17.412;2023-08-08T11:50:09;98139.41;;;17.40;78.60
73429;BME280;61643;49.564;17.412;2023-08-08T11:52:40;98133.19;;;17.40;78.60
73429;BME280;61643;49.564;17.412;2023-08-08T11:55:07;98139.72;;;17.39;78.43
73429;BME280;61643;49.564;17.412;2023-08-08T11:57:37;98124.31;;;17.34;79.64
73429;BME280;61643;49.564;17.412;2023-08-08T12:00:08;98122.09;;;17.36;81.52
73429;BME280;61643;49.564;17.412;2023-08-08T12:02:35;98124.03;;;17.36;79.85
73429;BME280;61643;49.564;17.412;2023-08-08T12:05:08;98130.06;;;17.33;81.58
73429;BME280;61643;49.564;17.412;2023-08-08T12:07:35;98128.44;;;17.32;82.89
73429;BME280;61643;49.564;17.412;2023-08-08T12:10:04;98135.50;;;17.33;84.03
73429;BME280;61643;49.564;17.412;2023-08-08T12:12:33;98136.09;;;17.30;85.40
73429;BME280;61643;49.564;17.412;2023-08-08T12:15:06;98142.94;;;17.27;88.02
73429;BME280;61643;49.564;17.412;2023-08-08T12:17:32;98138.41;;;17.22;92.00
73429;BME280;61643;49.564;17.412;2023-08-08T12:20:04;98139.34;;;17.18;96.59
73429;BME280;61643;49.564;17.412;2023-08-08T12:22:31;98134.84;;;16.81;99.59
73429;BME280;61643;49.564;17.412;2023-08-08T12:24:57;98138.94;;;16.79;100.00
73429;BME280;61643;49.564;17.412;2023-08-08T12:27:23;98140.13;;;16.72;100.00
73429;BME280;61643;49.564;17.412;2023-08-08T12:29:49;98141.59;;;16.84;100.00
73429;BME280;61643;49.564;17.412;2023-08-08T12:32:15;98137.03;;;16.79;100.00
73429;BME280;61643;49.564;17.412;2023-08-08T12:34:41;98143.50;;;16.83;100.00
73429;BME280;61643;49.564;17.412;2023-08-08T12:37:07;98149.25;;;16.95;100.00
73429;BME280;61643;49.564;17.412;2023-08-08T12:39:33;98150.88;;;16.96;100.00
73429;BME280;61643;49.564;17.412;2023-08-08T12:41:59;98148.94;;;16.97;100.00
73429;BME280;61643;49.564;17.412;2023-08-08T12:44:25;98157.63;;;16.99;100.00
73429;BME280;61643;49.564;17.412;2023-08-08T12:46:51;98154.91;;;16.99;100.00
73429;BME280;61643;49.564;17.412;2023-08-08T12:49:17;98148.91;;;16.83;100.00